• Join FlightAware (Why Join?)
  • Login
  • US Flag 
12:25AM EST


 

Airport Tracker/Info


-or-


 

Live Flight TrackerFlight Track Log ✈ UAL4846 ✈ 14-Apr-2013 ✈ KROC - KEWR

Flight Track Log - Related Links

Times and Time Zones

All times are in EDT time to prevent confusion due to time zone crossing. See the UAL4846 flight status page for this flight to view local times or setup timezone preferences in your user account.

Time Position Orientation Groundspeed Altitude Reporting Facility
EDT Latitude Longitude Course Direction KTS MPH feet Rate Location/Type
11:18AM 43.1036 -77.6914 124° Southeast 137 158 1,000  Level Cleveland Center
11:19AM 43.0758 -77.6728 154° Southeast 177 204 2,100 1,500 Climbing Cleveland Center
11:19AM 43.0689 -77.6444 109° East 179 206 2,900 1,440 Climbing Cleveland Center
11:20AM 43.0492 -77.6000 121° Southeast 187 215 3,700 1,080 Climbing Cleveland Center
11:20AM 43.0489 -77.5917 93° East 198 228 4,000 1,080 Climbing Cleveland Center
11:21AM 43.0242 -77.5189 115° Southeast 203 234 5,200 1,320 Climbing Cleveland Center
11:22AM 42.9950 -77.4494 120° Southeast 203 234 6,700 1,440 Climbing Cleveland Center
11:23AM 42.8589 -77.0843 124° Southeast  Level FlightAware Approximate
11:23AM 42.9703 -77.3797 116° Southeast 203 234 8,100  Level Cleveland Center
11:24AM 42.9411 -77.3103 120° Southeast 203 234 9,300 1,140 Climbing Cleveland Center
11:26AM 42.8900 -77.1644 116° Southeast 228 262 11,400 1,140 Climbing New York Center
11:27AM 42.8572 -77.0792 118° Southeast 240 276 12,600 840 Climbing New York Center
11:28AM 42.8222 -76.9908 118° Southeast 258 297 13,100 240 Climbing New York Center
11:29AM 42.7797 -76.8881 119° Southeast 287 330 13,100  Level New York Center
11:30AM 42.7328 -76.7847 122° Southeast 309 356 13,100  Level New York Center
11:31AM 42.6842 -76.6761 121° Southeast 321 369 13,100  Level New York Center
11:32AM 42.6375 -76.5703 121° Southeast 326 375 13,100  Level New York Center
11:33AM 42.5906 -76.4647 121° Southeast 331 381 13,100  Level New York Center
11:33AM 42.5719 -76.4328 128° Southeast 343 395 13,100  Level Boston Center
11:34AM 42.5317 -76.3372 120° Southeast 332 382 13,100  Level Boston Center
11:35AM 42.4831 -76.2300 122° Southeast 332 382 13,100  Level Boston Center
11:36AM 42.4267 -76.1056 122° Southeast 332 382 13,100  Level Boston Center
11:38AM 42.3797 -76.0044 122° Southeast 332 382 13,100  Level Boston Center
11:39AM 42.3214 -75.8744 121° Southeast 327 376 13,100  Level Boston Center
11:40AM 42.2686 -75.7539 121° Southeast 332 382 13,100  Level Boston Center
11:41AM 42.2217 -75.6503 121° Southeast 332 382 13,100  Level Boston Center
11:42AM 42.1722 -75.5469 123° Southeast 332 382 13,100 -60 Level Boston Center
11:43AM 42.1231 -75.4436 123° Southeast 332 382 13,000 -60 Descending Boston Center
11:44AM 42.0736 -75.3378 122° Southeast 332 382 13,000  Level Boston Center
11:45AM 42.0306 -75.2297 118° Southeast 332 382 13,000  Level Boston Center
11:46AM 41.9894 -75.1189 116° Southeast 327 376 13,000  Level Boston Center
11:47AM 41.9522 -75.0194 117° Southeast 332 382 13,000  Level Boston Center
11:48AM 41.9047 -74.9006 118° Southeast 332 382 13,000  Level Boston Center
11:49AM 41.8633 -74.7900 117° Southeast 332 382 13,000 -300 Level Boston Center
11:50AM 41.8217 -74.6828 118° Southeast 332 382 12,500 -540 Descending Boston Center
11:51AM 41.7781 -74.5697 117° Southeast 332 382 12,000 -1,200 Descending Boston Center
11:52AM 41.6992 -74.5450 167° South 286 329 10,200 -1,740 Descending Boston Center
11:53AM 41.6386 -74.5511 184° South 264 304 8,600 -1,140 Descending Boston Center
11:54AM 41.5550 -74.5650 187° South 254 292 8,000 -660 Descending Boston Center
11:55AM 41.4839 -74.5794 189° South 254 292 7,200 -900 Descending Boston Center
11:56AM 41.4022 -74.5961 189° South 259 298 6,100 -600 Descending Boston Center
11:57AM 41.3333 -74.6167 193° South 238 274 6,000 -60 Descending New York TRACON
11:58AM 41.2667 -74.6500 201° Southwest 244 281 6,000  Level New York TRACON
11:59AM 41.2000 -74.6667 191° South 244 281 6,000 -60 Level New York TRACON
12:00PM 41.1333 -74.7000 201° Southwest 238 274 5,900 -300 Descending New York TRACON
12:01PM 41.0833 -74.6500 143° Southeast 251 289 5,400 -480 Descending New York TRACON
12:02PM 41.0500 -74.5667 118° Southeast 255 293 5,000 -240 Descending New York TRACON
12:03PM 41.0167 -74.4833 118° Southeast 257 296 5,000  Level New York TRACON
12:04PM 41.0000 -74.4000 105° East 257 296 5,000  Level New York TRACON
12:05PM 41.0000 -74.3000 90° East 244 281 5,000 -180 Level New York TRACON
12:06PM 40.9833 -74.2333 108° East 242 278 4,700 -540 Descending New York TRACON
12:07PM 40.9667 -74.1333 102° East 226 260 4,000 -360 Descending New York TRACON
12:08PM 40.9167 -74.1000 153° Southeast 193 222 4,000 -540 Level New York TRACON
12:09PM 40.8667 -74.0833 166° South 194 223 3,000 -600 Descending New York TRACON
12:10PM 40.8167 -74.0667 166° South 183 211 2,900 -300 Descending New York TRACON
12:11PM 40.7667 -74.0833 194° South 183 211 2,500 -600 Descending New York TRACON
12:12PM 40.7167 -74.0833 180° South 168 193 1,700 -840 Descending New York TRACON
12:13PM 40.7000 -74.1167 237° Southwest 126 145 900 -840 Descending New York TRACON
12:15PM 40.6833 -74.1667 203° Southwest  Level FlightAware Approximate
12:22PM 40.6925 -74.1687 203° Southwest  Level Estimated